createdAt,value
2019-04-01T00:02:48.323Z,59.74
2019-04-01T00:07:42.343Z,60.23
2019-04-01T00:12:36.544Z,60.46
2019-04-01T00:17:30.531Z,60.65
2019-04-01T00:22:24.509Z,61.00
2019-04-01T00:27:18.469Z,61.10
2019-04-01T00:32:12.435Z,61.60
2019-04-01T00:37:06.405Z,62.22
2019-04-01T00:42:04.870Z,62.34
2019-04-01T00:46:58.861Z,62.89
2019-04-01T00:51:52.837Z,63.22
2019-04-01T00:56:46.820Z,63.71
2019-04-01T01:01:40.903Z,63.65
2019-04-01T01:06:34.908Z,64.22
2019-04-01T01:11:28.885Z,64.46
2019-04-01T01:16:22.853Z,64.25
2019-04-01T01:21:17.021Z,64.18
2019-04-01T01:26:11.202Z,64.15
2019-04-01T01:31:05.179Z,64.25
2019-04-01T01:35:59.230Z,64.32
2019-04-01T01:40:53.205Z,64.62
2019-04-01T01:45:47.195Z,64.64
2019-04-01T01:50:41.173Z,63.91
2019-04-01T01:55:35.192Z,63.80
2019-04-01T02:00:30.301Z,63.93
2019-04-01T02:05:24.722Z,64.19
2019-04-01T02:10:18.777Z,64.66
2019-04-01T02:15:12.859Z,65.31
2019-04-01T02:20:06.946Z,64.94
2019-04-01T02:25:00.947Z,65.22
2019-04-01T02:29:54.839Z,65.50
2019-04-01T02:34:48.805Z,65.66
2019-04-01T02:39:42.781Z,65.81
2019-04-01T02:44:36.733Z,66.12
2019-04-01T02:49:30.693Z,66.95
2019-04-01T02:54:24.661Z,67.33
2019-04-01T02:59:18.635Z,67.77
2019-04-01T03:04:12.607Z,68.16
2019-04-01T03:09:06.603Z,68.47
2019-04-01T03:14:00.687Z,68.43
2019-04-01T03:18:54.666Z,68.81
2019-04-01T03:23:48.722Z,68.73
2019-04-01T03:28:42.805Z,68.92
2019-04-01T03:33:36.783Z,69.19
2019-04-01T03:38:30.714Z,69.29
2019-04-01T03:43:24.786Z,69.77
2019-04-01T03:48:18.768Z,69.96
2019-04-01T03:53:12.844Z,70.25
2019-04-01T03:58:06.829Z,70.65
2019-04-01T04:03:00.774Z,71.08
2019-04-01T04:07:54.788Z,71.21
2019-04-01T04:12:48.734Z,71.27
2019-04-01T04:17:42.918Z,71.85
2019-04-01T04:22:36.877Z,71.93
2019-04-01T04:27:30.853Z,72.44
2019-04-01T04:32:24.824Z,72.68
2019-04-01T04:37:18.885Z,72.72
2019-04-01T04:42:12.825Z,72.76
2019-04-01T04:47:06.914Z,73.37
2019-04-01T04:52:04.394Z,73.87
2019-04-01T04:56:56.842Z,74.30
2019-04-01T05:01:50.801Z,74.21
2019-04-01T05:06:44.869Z,74.24
2019-04-01T05:11:38.796Z,73.93
2019-04-01T05:16:32.986Z,74.54
2019-04-01T05:21:27.560Z,74.35
2019-04-01T05:26:21.862Z,74.19
2019-04-01T05:31:18.559Z,74.10
2019-04-01T05:36:12.813Z,74.00
2019-04-01T05:41:06.879Z,73.86
2019-04-01T05:46:01.071Z,73.67
2019-04-01T05:50:55.345Z,73.20
2019-04-01T05:55:49.404Z,72.76
2019-04-01T06:00:57.358Z,72.41
2019-04-01T06:05:51.452Z,72.05
2019-04-01T06:10:45.662Z,71.39
2019-04-01T06:15:39.684Z,70.71
2019-04-01T06:20:33.800Z,70.35
2019-04-01T06:25:27.941Z,70.36
2019-04-01T06:30:22.133Z,69.64
2019-04-01T06:35:16.181Z,69.10
2019-04-01T06:40:10.350Z,68.38
2019-04-01T06:45:05.105Z,66.83
2019-04-01T06:49:59.171Z,65.83
2019-04-01T06:54:53.341Z,64.79
2019-04-01T06:59:47.453Z,65.25
2019-04-01T07:04:41.735Z,65.40
2019-04-01T07:09:35.859Z,64.87
2019-04-01T07:14:29.820Z,64.08
2019-04-01T07:19:23.897Z,63.05
2019-04-01T07:24:17.963Z,62.36
2019-04-01T07:29:11.934Z,62.36
2019-04-01T07:34:06.016Z,60.62
2019-04-01T07:39:00.099Z,60.61
2019-04-01T07:43:54.082Z,59.21
2019-04-01T07:48:48.281Z,59.20
2019-04-01T07:53:42.416Z,57.59
2019-04-01T07:58:37.080Z,56.55
2019-04-01T08:03:31.194Z,56.03
2019-04-01T08:08:25.312Z,56.27
2019-04-01T08:13:19.409Z,55.20
2019-04-01T08:18:13.583Z,55.05
2019-04-01T08:23:07.534Z,54.21
2019-04-01T08:28:01.634Z,53.93
2019-04-01T08:32:55.841Z,52.92
2019-04-01T08:37:49.793Z,52.02
2019-04-01T08:42:43.744Z,52.30
2019-04-01T08:47:38.148Z,51.22
2019-04-01T08:52:32.151Z,49.13
2019-04-01T08:57:26.230Z,50.46
2019-04-01T09:02:20.217Z,48.37
2019-04-01T09:07:14.237Z,48.56
2019-04-01T09:12:08.418Z,49.44
2019-04-01T09:17:02.491Z,47.79
2019-04-01T09:21:56.667Z,47.77
2019-04-01T09:26:50.747Z,46.72
2019-04-01T09:31:44.813Z,46.98
2019-04-01T09:36:38.798Z,46.71
2019-04-01T09:41:33.227Z,44.88
2019-04-01T09:46:27.202Z,46.09
2019-04-01T09:51:21.582Z,45.53
2019-04-01T09:56:15.566Z,44.24
2019-04-01T10:01:09.533Z,42.95
2019-04-01T10:06:03.598Z,42.84
2019-04-01T10:10:57.617Z,42.54
2019-04-01T10:15:51.591Z,42.38
2019-04-01T10:20:45.689Z,39.52
2019-04-01T10:25:39.688Z,38.74
2019-04-01T10:30:33.769Z,37.10
2019-04-01T10:35:27.758Z,37.48
2019-04-01T10:40:21.832Z,36.23
2019-04-01T10:45:16.424Z,34.31
2019-04-01T10:50:10.808Z,31.25
2019-04-01T10:55:05.675Z,26.95
2019-04-01T10:59:59.778Z,24.47
2019-04-01T11:04:53.978Z,21.39
2019-04-01T11:09:48.197Z,19.87
2019-04-01T11:14:42.206Z,19.19
2019-04-01T11:19:36.403Z,17.98
2019-04-01T11:24:30.607Z,16.22
2019-04-01T11:29:25.750Z,15.94
2019-04-01T11:34:20.136Z,15.17
2019-04-01T11:39:14.103Z,13.60
2019-04-01T11:44:08.176Z,14.09
2019-04-01T11:49:02.227Z,12.07
2019-04-01T11:53:56.280Z,11.37
2019-04-01T11:58:50.354Z,11.38
2019-04-01T12:03:44.342Z,11.02
2019-04-01T12:08:38.556Z,10.25
2019-04-01T12:13:32.547Z,10.42
2019-04-01T12:18:26.886Z,8.65
2019-04-01T12:23:21.017Z,9.80
2019-04-01T12:28:15.123Z,10.03
2019-04-01T12:33:09.158Z,9.36
2019-04-01T12:38:03.763Z,9.75
2019-04-01T12:42:57.762Z,8.66
2019-04-01T12:47:51.978Z,8.54
2019-04-01T12:52:46.313Z,7.98
2019-04-01T12:57:41.224Z,8.22
2019-04-01T13:02:35.291Z,8.38
2019-04-01T13:07:29.445Z,7.27
2019-04-01T13:12:27.165Z,7.63
2019-04-01T13:17:20.958Z,6.66
2019-04-01T13:22:15.267Z,6.95
2019-04-01T13:27:09.553Z,7.21
2019-04-01T13:32:03.641Z,7.00
2019-04-01T13:36:57.636Z,7.33
2019-04-01T13:41:51.602Z,6.20
2019-04-01T13:46:48.572Z,6.36
2019-04-01T13:51:43.751Z,6.11
2019-04-01T13:56:37.627Z,5.48
2019-04-01T14:01:31.616Z,5.95
2019-04-01T14:06:25.813Z,6.12
2019-04-01T14:11:19.799Z,5.05
2019-04-01T14:16:13.934Z,4.99
2019-04-01T14:21:16.287Z,5.00
2019-04-01T14:26:03.931Z,5.87
2019-04-01T14:30:57.973Z,5.60
2019-04-01T14:35:51.984Z,5.30
2019-04-01T14:40:46.073Z,5.37
2019-04-01T14:45:40.123Z,5.63
2019-04-01T14:50:34.100Z,5.42
2019-04-01T14:55:28.103Z,4.97
2019-04-01T15:00:22.331Z,4.48
2019-04-01T15:05:16.459Z,5.08
2019-04-01T15:10:10.783Z,4.18
2019-04-01T15:15:06.947Z,4.79
2019-04-01T15:20:01.938Z,3.91
2019-04-01T15:24:55.948Z,4.33
2019-04-01T15:29:49.944Z,4.04
2019-04-01T15:34:43.968Z,5.04
2019-04-01T15:39:38.202Z,4.83
2019-04-01T15:44:32.273Z,4.61
2019-04-01T15:49:26.371Z,3.71
2019-04-01T15:54:20.365Z,4.79
2019-04-01T15:59:14.440Z,4.53
2019-04-01T16:04:08.627Z,4.22
2019-04-01T16:09:05.269Z,4.90
2019-04-01T16:13:59.273Z,4.92
2019-04-01T16:18:53.246Z,5.98
2019-04-01T16:23:47.572Z,5.40
2019-04-01T16:28:41.603Z,5.78
2019-04-01T16:33:35.608Z,6.94
2019-04-01T16:38:29.572Z,7.94
2019-04-01T16:43:23.580Z,7.38
2019-04-01T16:48:17.674Z,7.26
2019-04-01T16:53:11.673Z,7.23
2019-04-01T16:58:05.671Z,7.96
2019-04-01T17:02:59.758Z,8.65
2019-04-01T17:07:53.808Z,12.68
2019-04-01T17:12:47.941Z,18.52
2019-04-01T17:17:42.098Z,21.28
2019-04-01T17:22:36.295Z,23.36
2019-04-01T17:27:30.398Z,24.36
2019-04-01T17:32:27.266Z,25.66
2019-04-01T17:37:21.482Z,26.97
2019-04-01T17:42:16.974Z,27.91
2019-04-01T17:47:11.241Z,30.33
2019-04-01T17:52:05.534Z,31.70
2019-04-01T17:56:59.656Z,32.23
2019-04-01T18:01:56.867Z,33.63
2019-04-01T18:06:49.634Z,34.32
2019-04-01T18:15:45.235Z,36.65
2019-04-01T18:20:39.424Z,38.21
2019-04-01T18:25:33.621Z,39.20
2019-04-01T18:30:27.957Z,40.56
2019-04-01T18:35:25.318Z,42.02
2019-04-01T18:40:32.022Z,42.23
2019-04-01T18:45:15.703Z,42.92
2019-04-01T18:50:09.931Z,43.79
2019-04-01T18:55:07.778Z,44.18
2019-04-01T19:00:02.598Z,44.34
2019-04-01T19:04:56.731Z,44.90
2019-04-01T19:09:50.839Z,45.40
2019-04-01T19:14:47.899Z,46.13
2019-04-01T19:19:42.758Z,46.53
2019-04-01T19:24:37.261Z,47.14
2019-04-01T19:29:31.299Z,47.96
2019-04-01T19:34:25.380Z,48.71
2019-04-01T19:39:19.382Z,49.28
2019-04-01T19:44:14.271Z,49.48
2019-04-01T19:49:08.727Z,50.20
2019-04-01T19:54:02.855Z,50.43
2019-04-01T19:58:56.969Z,51.04
2019-04-01T20:03:51.177Z,51.25
2019-04-01T20:08:48.172Z,51.82
2019-04-01T20:13:42.864Z,51.78
2019-04-01T20:18:37.031Z,51.80
2019-04-01T20:23:31.214Z,51.37
2019-04-01T20:28:25.334Z,51.36
2019-04-01T20:33:20.662Z,51.63
2019-04-01T20:38:15.213Z,51.14
2019-04-01T20:43:09.206Z,51.39
2019-04-01T20:48:04.440Z,50.94
2019-04-01T20:52:58.988Z,50.81
2019-04-01T20:57:53.000Z,50.87
2019-04-01T21:02:46.969Z,50.82
2019-04-01T21:07:41.193Z,50.58
2019-04-01T21:12:36.961Z,50.42
2019-04-01T21:17:31.271Z,50.57
2019-04-01T21:22:25.250Z,50.42
2019-04-01T21:27:19.239Z,50.97
2019-04-01T21:32:13.227Z,51.04
2019-04-01T21:37:07.218Z,50.84
2019-04-01T21:42:01.344Z,51.23
2019-04-01T21:46:55.444Z,50.89
2019-04-01T21:51:49.452Z,50.82
2019-04-01T21:56:43.535Z,51.00
2019-04-01T22:01:37.630Z,51.23
2019-04-01T22:06:31.611Z,51.02
2019-04-01T22:11:25.627Z,51.18
2019-04-01T22:16:19.723Z,51.14
2019-04-01T22:21:13.713Z,51.76
2019-04-01T22:26:07.773Z,52.05
2019-04-01T22:31:01.882Z,52.65
2019-04-01T22:35:55.827Z,52.88
2019-04-01T22:40:49.829Z,52.84
2019-04-01T22:45:43.828Z,53.26
2019-04-01T22:50:38.264Z,53.47
2019-04-01T22:55:33.337Z,53.76
2019-04-01T23:00:27.374Z,54.15
2019-04-01T23:05:21.393Z,54.14
2019-04-01T23:10:15.511Z,54.42
2019-04-01T23:15:09.762Z,55.29
2019-04-01T23:20:05.529Z,55.26
2019-04-01T23:24:59.612Z,55.74
2019-04-01T23:29:53.688Z,55.98
2019-04-01T23:34:47.875Z,56.06
2019-04-01T23:39:41.841Z,56.21
2019-04-01T23:44:35.809Z,56.35
2019-04-01T23:49:29.821Z,56.90
2019-04-01T23:54:23.932Z,56.90
2019-04-01T23:59:18.004Z,57.15
